Time;durP1;ratioP1;P1;durP2;ratioP2;P2;SDS_P1;SDS_P2;PMS_P1;PMS_P2;Temp;Humidity;BMP_temperature;BMP_pressure;BME280_temperature;BME280_humidity;BME280_pressure;Samples;Min_cycle;Max_cycle;Signal;HPM_P1;HPM_P2
2023/03/31 00:04:07;;;;;;;;;;;;;;;16.75;63.50;100862.88;7397598;19;800;-47
2023/03/31 00:06:56;;;;;;;;;;;;;;;16.74;63.76;100842.50;7395630;19;1120;-47
2023/03/31 00:12:23;;;;;;;;;;;;;;;16.76;64.49;100845.91;7396940;19;734;-48
2023/03/31 00:17:47;;;;;;;;;;;;;;;16.73;63.82;100814.06;7395551;19;1845;-48
2023/03/31 00:23:13;;;;;;;;;;;;;;;16.76;64.01;100829.88;7396661;19;745;-47
2023/03/31 00:28:39;;;;;;;;;;;;;;;16.73;63.63;100816.75;7396930;19;730;-47
2023/03/31 00:34:03;;;;;;;;;;;;;;;16.70;63.27;100815.16;7396720;19;734;-47
2023/03/31 00:39:30;;;;;;;;;;;;;;;16.74;64.58;100799.75;7396597;19;816;-47
2023/03/31 00:42:17;;;;;;;;;;;;;;;16.70;63.56;100794.66;7402755;19;1046;-47
2023/03/31 00:47:45;;;;;;;;;;;;;;;16.69;63.23;100795.63;7403417;19;800;-47
2023/03/31 00:53:11;;;;;;;;;;;;;;;16.65;63.43;100809.31;7403289;19;737;-47
2023/03/31 00:58:42;;;;;;;;;;;;;;;16.64;63.47;100803.13;7403694;19;789;-47
2023/03/31 01:04:09;;;;;;;;;;;;;;;16.64;64.21;100800.47;7402931;19;729;-47
2023/03/31 01:09:33;;;;;;;;;;;;;;;16.65;63.45;100795.97;7402716;19;515;-47
2023/03/31 01:14:57;;;;;;;;;;;;;;;16.61;63.27;100779.38;7402605;19;820;-47
2023/03/31 01:17:31;;;;;;;;;;;;;;;16.62;63.98;100778.38;7400718;19;1853;-47
2023/03/31 01:23:12;;;;;;;;;;;;;;;16.60;64.07;100768.81;7402278;19;721;-47
2023/03/31 01:28:39;;;;;;;;;;;;;;;16.58;63.22;100758.22;7402625;19;804;-47
2023/03/31 01:34:24;;;;;;;;;;;;;;;16.54;63.16;100746.09;7402773;19;724;-47
2023/03/31 01:40:04;;;;;;;;;;;;;;;16.58;63.74;100758.22;7402098;19;737;-48
2023/03/31 01:45:47;;;;;;;;;;;;;;;17.05;63.58;100745.66;7399205;19;877;-47
2023/03/31 01:51:15;;;;;;;;;;;;;;;18.75;59.79;100740.38;7401534;19;881;-48
2023/03/31 01:56:41;;;;;;;;;;;;;;;19.60;57.25;100738.22;7400962;19;1853;-47
2023/03/31 02:02:10;;;;;;;;;;;;;;;19.85;57.30;100731.47;7402716;19;769;-47
2023/03/31 02:07:35;;;;;;;;;;;;;;;19.98;56.52;100726.66;7396260;19;1131;-47
2023/03/31 02:15:52;;;;;;;;;;;;;;;20.16;56.36;100724.09;7400918;19;737;-48
2023/03/31 02:21:19;;;;;;;;;;;;;;;20.15;56.83;100727.75;7400262;19;789;-48
2023/03/31 02:26:45;;;;;;;;;;;;;;;20.24;56.57;100718.84;7400480;19;729;-48
2023/03/31 02:32:12;;;;;;;;;;;;;;;20.15;56.93;100710.81;7400550;19;772;-48
2023/03/31 02:37:39;;;;;;;;;;;;;;;20.08;57.27;100701.66;7399046;19;1847;-48
2023/03/31 02:45:59;;;;;;;;;;;;;;;20.29;56.70;100686.19;7399993;19;828;-48
2023/03/31 02:51:37;;;;;;;;;;;;;;;20.32;56.40;100693.97;7399335;19;801;-48
2023/03/31 02:57:14;;;;;;;;;;;;;;;20.37;56.29;100693.50;7398500;19;1842;-47
2023/03/31 03:02:45;;;;;;;;;;;;;;;20.41;56.17;100705.66;7398510;19;792;-48
2023/03/31 03:08:16;;;;;;;;;;;;;;;20.51;56.19;100698.41;7397479;19;1092;-48
2023/03/31 03:13:47;;;;;;;;;;;;;;;20.52;55.82;100713.53;7399031;19;729;-48
2023/03/31 03:19:11;;;;;;;;;;;;;;;20.52;55.87;100708.16;7398862;19;827;-48
2023/03/31 03:24:35;;;;;;;;;;;;;;;20.56;55.92;100720.31;7398248;19;780;-47
2023/03/31 03:30:03;;;;;;;;;;;;;;;20.63;55.97;100716.09;7398505;19;804;-48
2023/03/31 03:35:27;;;;;;;;;;;;;;;20.70;55.75;100710.13;7397927;19;733;-48
2023/03/31 03:40:54;;;;;;;;;;;;;;;20.62;55.85;100725.13;7397895;19;741;-47
2023/03/31 03:46:21;;;;;;;;;;;;;;;20.65;55.99;100719.47;7398462;19;725;-47
2023/03/31 03:51:44;;;;;;;;;;;;;;;20.64;56.30;100723.13;7398178;19;713;-47
2023/03/31 03:57:09;;;;;;;;;;;;;;;20.76;55.79;100737.25;7397625;19;1847;-47
2023/03/31 04:02:35;;;;;;;;;;;;;;;19.88;57.95;100746.47;7397269;19;714;-47
2023/03/31 04:10:50;;;;;;;;;;;;;;;18.80;60.67;100753.38;7392856;19;1118;-47
2023/03/31 04:16:13;;;;;;;;;;;;;;;19.51;58.72;100749.78;7404244;19;741;-48
2023/03/31 04:19:05;;;;;;;;;;;;;;;19.68;58.47;100762.53;7401536;19;1877;-48
2023/03/31 04:24:32;;;;;;;;;;;;;;;18.91;60.65;100753.31;7404607;19;733;-48
2023/03/31 04:27:16;;;;;;;;;;;;;;;18.78;61.17;100747.28;7403951;19;1134;-48
2023/03/31 04:30:21;;;;;;;;;;;;;;;19.08;60.17;100741.94;7404454;19;1027;-48
2023/03/31 04:38:45;;;;;;;;;;;;;;;19.77;58.21;100752.81;7400730;19;1857;-48
2023/03/31 04:41:29;;;;;;;;;;;;;;;19.81;58.27;100757.72;7404506;19;968;-48
2023/03/31 04:46:52;;;;;;;;;;;;;;;19.07;60.72;100748.28;7404015;19;792;-48
2023/03/31 04:49:28;;;;;;;;;;;;;;;18.71;61.86;100751.50;7403791;19;1018;-47
2023/03/31 04:52:03;;;;;;;;;;;;;;;18.69;61.66;100739.06;7403397;19;1577;-47
2023/03/31 04:54:55;;;;;;;;;;;;;;;19.15;60.38;100744.06;7403230;19;1126;-47
2023/03/31 05:00:22;;;;;;;;;;;;;;;19.60;58.95;100735.56;7403166;19;803;-46
2023/03/31 05:05:52;;;;;;;;;;;;;;;19.65;58.42;100742.16;7402843;19;853;-46
2023/03/31 05:08:23;;;;;;;;;;;;;;;19.59;58.71;100725.78;7402831;19;968;-47
2023/03/31 05:10:51;;;;;;;;;;;;;;;19.62;58.45;100725.53;7401037;19;1264;-47
2023/03/31 05:13:34;;;;;;;;;;;;;;;19.57;58.74;100712.50;7404332;19;1530;-46
2023/03/31 05:16:06;;;;;;;;;;;;;;;19.63;57.99;100732.56;7404191;19;1184;-47
2023/03/31 05:21:35;;;;;;;;;;;;;;;19.33;59.13;100726.31;7403297;19;1189;-47
2023/03/31 05:29:51;;;;;;;;;;;;;;;19.06;60.21;100711.75;7406818;19;843;-47
2023/03/31 05:35:15;;;;;;;;;;;;;;;18.91;60.65;100713.09;7402707;19;733;-47
2023/03/31 05:37:50;;;;;;;;;;;;;;;18.76;61.34;100717.09;7401085;19;1855;-47
2023/03/31 05:40:20;;;;;;;;;;;;;;;18.57;61.75;100725.91;7402486;19;1034;-47
2023/03/31 05:45:46;;;;;;;;;;;;;;;19.30;59.31;100726.63;7401641;19;812;-47
2023/03/31 05:48:26;;;;;;;;;;;;;;;19.71;58.12;100719.31;7401353;19;1236;-48
2023/03/31 05:51:00;;;;;;;;;;;;;;;19.30;59.18;100715.91;7401456;19;1110;-47
2023/03/31 05:53:51;;;;;;;;;;;;;;;18.84;60.61;100718.19;7401676;19;1051;-47
2023/03/31 05:56:26;;;;;;;;;;;;;;;18.63;61.30;100712.84;7401109;19;1035;-49
2023/03/31 05:59:15;;;;;;;;;;;;;;;18.95;60.38;100711.84;7399962;19;1857;-47
2023/03/31 06:01:53;;;;;;;;;;;;;;;19.30;58.85;100712.34;7400918;19;1106;-47
2023/03/31 06:04:32;;;;;;;;;;;;;;;18.93;59.62;100708.47;7400894;19;1071;-47
2023/03/31 06:07:16;;;;;;;;;;;;;;;18.73;60.34;100709.34;7401404;19;1017;-47
2023/03/31 06:09:51;;;;;;;;;;;;;;;18.64;60.89;100701.16;7401224;19;1047;-47
2023/03/31 06:12:36;;;;;;;;;;;;;;;18.90;59.86;100703.41;7399287;19;1175;-47
2023/03/31 06:15:20;;;;;;;;;;;;;;;19.04;59.38;100705.69;7400485;19;1123;-47
2023/03/31 06:17:51;;;;;;;;;;;;;;;18.75;60.16;100723.47;7399600;19;1846;-47
2023/03/31 06:20:29;;;;;;;;;;;;;;;18.65;60.27;100689.44;7401269;19;979;-47
2023/03/31 06:23:06;;;;;;;;;;;;;;;18.69;60.63;100698.91;7400304;19;1052;-47
2023/03/31 06:25:39;;;;;;;;;;;;;;;18.93;59.96;100711.13;7400850;19;999;-47
2023/03/31 06:28:09;;;;;;;;;;;;;;;18.95;59.73;100700.28;7400008;19;1008;-47
2023/03/31 06:30:56;;;;;;;;;;;;;;;18.74;60.54;100687.78;7403925;19;1192;-48
2023/03/31 06:33:30;;;;;;;;;;;;;;;18.64;60.38;100681.53;7402326;19;1334;-47
2023/03/31 06:38:56;;;;;;;;;;;;;;;19.08;59.77;100691.03;7398355;19;1840;-47
2023/03/31 06:41:25;;;;;;;;;;;;;;;18.85;60.02;100678.81;7400073;19;1045;-47
2023/03/31 06:44:21;;;;;;;;;;;;;;;18.63;60.76;100691.41;7399957;19;1086;-47
2023/03/31 06:47:10;;;;;;;;;;;;;;;18.52;61.12;100694.16;7399536;19;994;-48
2023/03/31 06:49:39;;;;;;;;;;;;;;;18.79;60.47;100696.28;7399482;19;1034;-47
2023/03/31 06:52:07;;;;;;;;;;;;;;;18.86;59.88;100684.06;7399265;19;1051;-47
2023/03/31 06:54:47;;;;;;;;;;;;;;;18.63;60.85;100696.75;7399298;19;1039;-47
2023/03/31 06:57:15;;;;;;;;;;;;;;;18.48;60.95;100682.91;7400431;19;1014;-47
2023/03/31 06:59:44;;;;;;;;;;;;;;;18.59;60.65;100678.44;7399047;19;1163;-47
2023/03/31 07:02:14;;;;;;;;;;;;;;;18.87;60.33;100671.50;7398965;19;1059;-47
2023/03/31 07:04:42;;;;;;;;;;;;;;;19.22;59.55;100676.38;7402412;19;1572;-47
2023/03/31 07:07:16;;;;;;;;;;;;;;;19.33;58.63;100666.50;7399331;19;1702;-47
2023/03/31 07:09:53;;;;;;;;;;;;;;;18.85;59.86;100657.41;7402931;19;1640;-47
2023/03/31 07:12:30;;;;;;;;;;;;;;;18.66;60.84;100677.75;7398019;19;2162;-47
2023/03/31 07:15:04;;;;;;;;;;;;;;;18.60;61.07;100659.56;7399446;19;1026;-47
2023/03/31 07:17:49;;;;;;;;;;;;;;;18.87;60.55;100655.41;7399052;19;1853;-47
2023/03/31 07:20:20;;;;;;;;;;;;;;;18.98;59.78;100647.28;7399210;19;959;-47
2023/03/31 07:22:55;;;;;;;;;;;;;;;18.69;60.89;100644.47;7398663;19;1031;-47
2023/03/31 07:25:45;;;;;;;;;;;;;;;18.56;61.16;100647.41;7399205;19;967;-47
2023/03/31 07:28:29;;;;;;;;;;;;;;;18.75;60.39;100635.91;7399157;19;963;-47
2023/03/31 07:31:00;;;;;;;;;;;;;;;19.14;59.67;100649.41;7397996;19;1272;-47
2023/03/31 07:33:37;;;;;;;;;;;;;;;19.44;58.43;100634.19;7398829;19;1033;-47
2023/03/31 07:36:19;;;;;;;;;;;;;;;19.55;58.21;100633.19;7397910;19;979;-47
2023/03/31 07:38:48;;;;;;;;;;;;;;;19.44;58.68;100621.63;7401859;19;1846;-47
2023/03/31 07:41:31;;;;;;;;;;;;;;;19.39;58.96;100618.50;7398676;19;988;-47
2023/03/31 07:44:03;;;;;;;;;;;;;;;19.58;58.46;100608.78;7397615;19;1177;-47
2023/03/31 07:49:29;;;;;;;;;;;;;;;19.54;58.21;100604.69;7401124;19;535;-47
2023/03/31 07:52:05;;;;;;;;;;;;;;;19.41;58.83;100587.03;7398368;19;1027;-47
2023/03/31 07:54:45;;;;;;;;;;;;;;;19.40;58.53;100589.88;7398218;19;1046;-47
2023/03/31 07:57:32;;;;;;;;;;;;;;;19.44;58.58;100573.34;7397356;19;1243;-47
2023/03/31 08:00:05;;;;;;;;;;;;;;;19.48;58.33;100569.41;7397228;19;1068;-47
2023/03/31 08:05:49;;;;;;;;;;;;;;;19.51;58.21;100562.88;7397576;19;870;-47
2023/03/31 08:08:23;;;;;;;;;;;;;;;19.59;58.10;100556.81;7397009;19;1028;-47
2023/03/31 08:10:51;;;;;;;;;;;;;;;19.70;57.90;100551.28;7396744;19;1218;-47
2023/03/31 08:13:26;;;;;;;;;;;;;;;19.76;58.08;100545.38;7397294;19;1007;-47
2023/03/31 08:15:58;;;;;;;;;;;;;;;19.70;57.98;100548.59;7396773;19;976;-47
2023/03/31 08:18:49;;;;;;;;;;;;;;;19.85;57.80;100538.25;7396105;19;1848;-47
2023/03/31 08:21:43;;;;;;;;;;;;;;;20.00;57.55;100530.59;7397078;19;1110;-47
2023/03/31 08:27:09;;;;;;;;;;;;;;;20.10;57.06;100509.06;7396621;19;753;-47
2023/03/31 08:29:47;;;;;;;;;;;;;;;19.48;58.83;100502.34;7396529;19;1028;-47
2023/03/31 08:32:28;;;;;;;;;;;;;;;19.11;59.66;100513.00;7396588;19;1016;-48
2023/03/31 08:34:56;;;;;;;;;;;;;;;18.80;60.72;100502.44;7396307;19;1059;-47
2023/03/31 08:37:30;;;;;;;;;;;;;;;18.85;60.28;100480.56;7396164;19;1110;-47
2023/03/31 08:40:08;;;;;;;;;;;;;;;19.35;59.40;100490.25;7394853;19;1884;-47
2023/03/31 08:42:43;;;;;;;;;;;;;;;19.46;59.07;100482.88;7396397;19;1067;-47
2023/03/31 08:45:22;;;;;;;;;;;;;;;19.04;59.77;100467.16;7396023;19;1130;-47
2023/03/31 08:47:59;;;;;;;;;;;;;;;18.79;60.45;100473.06;7395804;19;1031;-47
2023/03/31 08:50:32;;;;;;;;;;;;;;;18.66;60.91;100471.53;7396530;19;1131;-47
2023/03/31 08:53:05;;;;;;;;;;;;;;;18.96;59.92;100461.69;7395747;19;1130;-47
2023/03/31 08:55:38;;;;;;;;;;;;;;;19.35;59.07;100464.25;7396228;19;1140;-47
2023/03/31 08:58:15;;;;;;;;;;;;;;;19.13;59.51;100446.69;7395697;19;1854;-47
2023/03/31 09:00:48;;;;;;;;;;;;;;;18.93;60.43;100445.88;7395639;19;1086;-47
2023/03/31 09:03:26;;;;;;;;;;;;;;;18.78;60.66;100448.13;7402769;19;1125;-47
2023/03/31 09:06:03;;;;;;;;;;;;;;;19.10;59.64;100451.47;7402856;19;1130;-47
2023/03/31 09:11:31;;;;;;;;;;;;;;;19.14;59.95;100431.44;7400770;19;1268;-47
2023/03/31 09:14:24;;;;;;;;;;;;;;;18.88;60.36;100424.03;7403293;19;1121;-47
2023/03/31 09:17:14;;;;;;;;;;;;;;;18.64;60.93;100422.59;7402478;19;1109;-47
2023/03/31 09:19:48;;;;;;;;;;;;;;;19.01;60.37;100424.56;7401430;19;1858;-47
2023/03/31 09:22:28;;;;;;;;;;;;;;;19.38;59.20;100423.78;7402310;19;1209;-47
2023/03/31 09:25:07;;;;;;;;;;;;;;;19.13;60.09;100419.88;7402209;19;1047;-47
2023/03/31 09:27:56;;;;;;;;;;;;;;;18.89;61.03;100428.38;7402118;19;1129;-47
2023/03/31 09:30:31;;;;;;;;;;;;;;;18.77;61.20;100421.47;7403298;19;1045;-47
2023/03/31 09:33:06;;;;;;;;;;;;;;;19.10;60.05;100406.78;7401998;19;1007;-47
2023/03/31 09:36:01;;;;;;;;;;;;;;;19.49;59.24;100403.97;7402364;19;1135;-47
2023/03/31 09:38:43;;;;;;;;;;;;;;;19.17;60.28;100402.50;7401115;19;1850;-47
2023/03/31 09:41:27;;;;;;;;;;;;;;;18.87;60.89;100387.50;7402610;19;1026;-47
2023/03/31 09:44:11;;;;;;;;;;;;;;;18.87;60.79;100387.50;7401624;19;1036;-47
2023/03/31 09:46:40;;;;;;;;;;;;;;;19.27;59.79;100394.44;7401476;19;1114;-47
2023/03/31 09:49:15;;;;;;;;;;;;;;;19.51;59.61;100374.31;7401446;19;2008;-47
2023/03/31 09:51:47;;;;;;;;;;;;;;;19.15;60.65;100371.50;7401375;19;1055;-47
2023/03/31 09:54:22;;;;;;;;;;;;;;;18.87;61.44;100377.63;7401279;19;1071;-47
2023/03/31 09:56:58;;;;;;;;;;;;;;;18.79;61.27;100382.00;7401869;19;951;-47
2023/03/31 09:59:42;;;;;;;;;;;;;;;19.14;60.61;100393.91;7400533;19;1842;-47
2023/03/31 10:02:16;;;;;;;;;;;;;;;19.54;59.34;100360.63;7401761;19;1039;-47
2023/03/31 10:04:55;;;;;;;;;;;;;;;19.30;60.10;100351.28;7400763;19;1055;-47
2023/03/31 10:07:34;;;;;;;;;;;;;;;19.00;60.92;100361.25;7400803;19;1138;-47
2023/03/31 10:10:05;;;;;;;;;;;;;;;18.82;61.73;100368.31;7400842;19;1067;-47
2023/03/31 10:15:38;;;;;;;;;;;;;;;19.30;59.59;100350.41;7398499;19;1077;-47
2023/03/31 10:18:11;;;;;;;;;;;;;;;18.97;59.37;100353.47;7400507;19;1043;-47
2023/03/31 10:20:40;;;;;;;;;;;;;;;18.72;60.37;100360.31;7399043;19;1844;-47
2023/03/31 10:23:24;;;;;;;;;;;;;;;18.65;60.91;100362.69;7400794;19;966;-47
2023/03/31 10:26:01;;;;;;;;;;;;;;;19.11;59.49;100359.38;7400218;19;970;-47
2023/03/31 10:28:37;;;;;;;;;;;;;;;19.47;59.26;100355.00;7400722;19;1021;-47
2023/03/31 10:31:08;;;;;;;;;;;;;;;19.07;59.48;100356.97;7400923;19;1018;-49
2023/03/31 10:36:28;;;;;;;;;;;;;;;18.89;60.67;100348.00;7400515;19;811;-47
2023/03/31 10:39:18;;;;;;;;;;;;;;;19.32;59.81;100341.25;7399775;19;1844;-47
2023/03/31 10:41:51;;;;;;;;;;;;;;;19.33;59.85;100344.75;7399807;19;1055;-47
2023/03/31 10:44:36;;;;;;;;;;;;;;;19.10;60.57;100350.50;7399747;19;1051;-48
2023/03/31 10:47:21;;;;;;;;;;;;;;;18.81;61.38;100339.84;7400114;19;978;-47
2023/03/31 10:49:58;;;;;;;;;;;;;;;18.79;61.52;100331.97;7399426;19;1035;-47
2023/03/31 10:55:35;;;;;;;;;;;;;;;19.44;59.70;100315.91;7400107;19;710;-47
2023/03/31 10:58:20;;;;;;;;;;;;;;;19.12;60.58;100296.72;7400043;19;1029;-47
2023/03/31 11:01:08;;;;;;;;;;;;;;;18.88;60.87;100298.13;7397210;19;1838;-47
2023/03/31 11:03:56;;;;;;;;;;;;;;;19.00;61.41;100291.56;7399031;19;1075;-47
2023/03/31 11:09:31;;;;;;;;;;;;;;;19.62;59.62;100267.69;7403944;19;841;-47
2023/03/31 11:12:04;;;;;;;;;;;;;;;19.30;60.72;100270.84;7397187;19;1184;-47
2023/03/31 11:14:42;;;;;;;;;;;;;;;19.02;62.08;100278.88;7399378;19;1038;-47
2023/03/31 11:17:40;;;;;;;;;;;;;;;18.89;63.06;100259.59;7399334;19;1039;-47
2023/03/31 11:20:18;;;;;;;;;;;;;;;18.94;62.75;100264.50;7397273;19;1838;-47
2023/03/31 11:23:00;;;;;;;;;;;;;;;19.57;61.18;100267.28;7398869;19;1093;-47
2023/03/31 11:25:45;;;;;;;;;;;;;;;19.60;60.76;100266.16;7396459;19;952;-47
2023/03/31 11:28:22;;;;;;;;;;;;;;;19.26;62.16;100253.38;7398174;19;1040;-48
2023/03/31 11:31:09;;;;;;;;;;;;;;;18.98;62.83;100245.34;7399080;19;1190;-47
2023/03/31 11:33:58;;;;;;;;;;;;;;;18.80;63.33;100252.44;7398047;19;1048;-47
2023/03/31 11:36:40;;;;;;;;;;;;;;;19.01;62.52;100258.41;7397824;19;1188;-47
2023/03/31 11:45:03;;;;;;;;;;;;;;;19.04;62.77;100242.06;7397736;19;824;-47
2023/03/31 11:47:36;;;;;;;;;;;;;;;18.84;62.91;100243.97;7398073;19;959;-47
2023/03/31 11:50:06;;;;;;;;;;;;;;;18.88;62.85;100244.53;7397699;19;1144;-47
2023/03/31 11:52:45;;;;;;;;;;;;;;;19.51;60.96;100232.19;7397688;19;982;-47
2023/03/31 11:55:17;;;;;;;;;;;;;;;19.69;60.86;100233.03;7397957;19;1070;-47
2023/03/31 11:57:56;;;;;;;;;;;;;;;19.29;61.57;100253.06;7399466;19;1041;-47
2023/03/31 12:00:27;;;;;;;;;;;;;;;18.99;62.61;100247.00;7400491;19;1854;-47
2023/03/31 12:03:13;;;;;;;;;;;;;;;18.79;63.13;100218.59;7401288;19;1542;-47
2023/03/31 12:05:49;;;;;;;;;;;;;;;19.16;62.21;100236.47;7397147;19;1045;-47
2023/03/31 12:08:23;;;;;;;;;;;;;;;19.88;60.60;100229.38;7400586;19;999;-47
2023/03/31 12:11:08;;;;;;;;;;;;;;;19.67;60.67;100238.53;7396237;19;1123;-47
2023/03/31 12:13:42;;;;;;;;;;;;;;;19.13;62.45;100218.88;7397861;19;1021;-48
2023/03/31 12:16:13;;;;;;;;;;;;;;;18.90;62.81;100221.13;7396860;19;1252;-47
2023/03/31 12:18:45;;;;;;;;;;;;;;;18.96;62.66;100206.25;7397615;19;964;-47
2023/03/31 12:21:22;;;;;;;;;;;;;;;19.37;61.46;100210.25;7395696;19;1847;-47
2023/03/31 12:23:54;;;;;;;;;;;;;;;19.76;60.71;100201.94;7397449;19;1048;-47
2023/03/31 12:26:51;;;;;;;;;;;;;;;19.45;61.37;100218.38;7397388;19;1069;-47
2023/03/31 12:29:29;;;;;;;;;;;;;;;19.10;62.20;100216.50;7396490;19;1111;-48
2023/03/31 12:35:02;;;;;;;;;;;;;;;18.87;62.81;100199.97;7396850;19;823;-47
2023/03/31 12:37:46;;;;;;;;;;;;;;;19.50;61.05;100203.66;7403856;19;1059;-47
2023/03/31 12:43:22;;;;;;;;;;;;;;;19.29;61.62;100199.44;7408457;19;816;-47
2023/03/31 12:48:56;;;;;;;;;;;;;;;18.76;63.45;100187.59;7400697;19;1081;-47
2023/03/31 12:51:45;;;;;;;;;;;;;;;18.92;62.87;100180.75;7403308;19;1032;-48
2023/03/31 12:54:34;;;;;;;;;;;;;;;19.61;60.86;100182.00;7403313;19;1125;-47
2023/03/31 12:57:17;;;;;;;;;;;;;;;19.56;60.94;100176.25;7405166;19;1110;-48
2023/03/31 13:00:09;;;;;;;;;;;;;;;19.19;61.67;100171.84;7403044;19;1854;-47
2023/03/31 13:02:43;;;;;;;;;;;;;;;18.88;62.61;100154.28;7401385;19;1425;-47
2023/03/31 13:08:10;;;;;;;;;;;;;;;19.34;61.36;100153.41;7402916;19;725;-47
2023/03/31 13:11:00;;;;;;;;;;;;;;;19.75;60.40;100143.06;7402656;19;1850;-47
2023/03/31 13:13:38;;;;;;;;;;;;;;;19.41;60.94;100125.00;7401328;19;1111;-47
2023/03/31 13:18:58;;;;;;;;;;;;;;;18.90;62.90;100146.09;7400460;19;1072;-47
2023/03/31 13:21:54;;;;;;;;;;;;;;;18.82;62.72;100140.63;7399888;19;1838;-47
2023/03/31 13:24:43;;;;;;;;;;;;;;;19.14;61.92;100144.66;7403230;19;1021;-47
2023/03/31 13:27:34;;;;;;;;;;;;;;;19.54;61.10;100127.31;7402709;19;1299;-48
2023/03/31 13:30:05;;;;;;;;;;;;;;;19.35;61.21;100130.97;7402170;19;1138;-47
2023/03/31 13:32:33;;;;;;;;;;;;;;;18.91;61.52;100126.34;7405625;19;1078;-47
2023/03/31 13:35:05;;;;;;;;;;;;;;;18.76;62.02;100130.47;7405518;19;1346;-46
2023/03/31 13:37:47;;;;;;;;;;;;;;;18.72;62.38;100113.03;7401793;19;992;-47
2023/03/31 13:40:31;;;;;;;;;;;;;;;19.44;60.15;100127.38;7401431;19;1853;-47
2023/03/31 13:43:15;;;;;;;;;;;;;;;19.65;59.87;100114.47;7402199;19;1103;-47
2023/03/31 13:45:55;;;;;;;;;;;;;;;19.31;60.54;100110.84;7401664;19;1039;-47
2023/03/31 13:48:38;;;;;;;;;;;;;;;18.96;61.79;100108.00;7400072;19;1043;-46
2023/03/31 13:54:18;;;;;;;;;;;;;;;18.77;62.70;100119.63;7399174;19;1097;-47
2023/03/31 13:57:14;;;;;;;;;;;;;;;19.48;60.62;100116.19;7398054;19;1107;-46
2023/03/31 14:00:11;;;;;;;;;;;;;;;19.52;60.62;100102.44;7397436;19;1830;-47
2023/03/31 14:02:50;;;;;;;;;;;;;;;19.13;61.33;100100.09;7400418;19;1526;-47
2023/03/31 14:05:35;;;;;;;;;;;;;;;18.89;62.12;100109.56;7401087;19;1117;-47
2023/03/31 14:08:21;;;;;;;;;;;;;;;18.76;62.38;100090.28;7401747;19;1022;-46
2023/03/31 14:10:50;;;;;;;;;;;;;;;19.24;61.34;100092.69;7400884;19;1051;-46
2023/03/31 14:13:26;;;;;;;;;;;;;;;19.64;60.48;100083.28;7398969;19;1116;-47
2023/03/31 14:18:54;;;;;;;;;;;;;;;19.14;61.82;100083.00;7400577;19;823;-47
2023/03/31 14:21:41;;;;;;;;;;;;;;;18.86;62.67;100083.06;7399555;19;1845;-47
2023/03/31 14:24:30;;;;;;;;;;;;;;;18.75;63.04;100067.19;7400348;19;1101;-47
2023/03/31 14:27:17;;;;;;;;;;;;;;;19.29;61.07;100076.13;7400293;19;1082;-46
2023/03/31 14:29:57;;;;;;;;;;;;;;;19.75;59.97;100082.22;7400130;19;1101;-47
2023/03/31 14:32:32;;;;;;;;;;;;;;;19.41;60.82;100080.25;7400027;19;1126;-47
2023/03/31 14:35:16;;;;;;;;;;;;;;;19.08;61.71;100063.88;7400843;19;1038;-47
2023/03/31 14:37:58;;;;;;;;;;;;;;;18.96;62.35;100075.84;7399983;19;1875;-47
2023/03/31 14:40:49;;;;;;;;;;;;;;;18.80;62.60;100072.97;7399098;19;1857;-47
2023/03/31 14:46:13;;;;;;;;;;;;;;;19.64;60.11;100059.16;7400162;19;722;-47
2023/03/31 14:51:37;;;;;;;;;;;;;;;19.01;61.80;100065.47;7399491;19;761;-47
2023/03/31 14:54:16;;;;;;;;;;;;;;;18.83;62.28;100060.13;7399393;19;1121;-47
2023/03/31 14:57:06;;;;;;;;;;;;;;;18.75;62.66;100057.31;7399283;19;1149;-47
2023/03/31 14:59:48;;;;;;;;;;;;;;;19.17;61.99;100072.00;7396869;19;1098;-47
2023/03/31 15:02:34;;;;;;;;;;;;;;;19.57;60.71;100062.59;7398949;19;1034;-46
2023/03/31 15:05:19;;;;;;;;;;;;;;;19.28;61.25;100069.09;7399356;19;1038;-46
2023/03/31 15:08:13;;;;;;;;;;;;;;;19.05;62.23;100064.19;7398867;19;1130;-47
2023/03/31 15:10:45;;;;;;;;;;;;;;;18.83;62.14;100076.19;7398978;19;1019;-46
2023/03/31 15:13:36;;;;;;;;;;;;;;;18.86;62.62;100064.31;7398228;19;1125;-46
2023/03/31 15:16:20;;;;;;;;;;;;;;;19.50;60.99;100081.19;7398595;19;1102;-46
2023/03/31 15:18:54;;;;;;;;;;;;;;;19.51;60.66;100063.25;7398571;19;1110;-47
2023/03/31 15:21:23;;;;;;;;;;;;;;;19.24;61.60;100079.28;7398034;19;1849;-46
2023/03/31 15:23:54;;;;;;;;;;;;;;;18.90;61.92;100075.56;7398667;19;960;-47
2023/03/31 15:26:28;;;;;;;;;;;;;;;18.72;62.71;100075.53;7398748;19;1007;-47
2023/03/31 15:32:00;;;;;;;;;;;;;;;19.64;60.48;100079.78;7396570;19;1093;-47
2023/03/31 15:34:34;;;;;;;;;;;;;;;19.50;60.68;100094.59;7398084;19;1114;-47
2023/03/31 15:37:17;;;;;;;;;;;;;;;19.16;61.90;100064.94;7399230;19;979;-47
2023/03/31 15:39:52;;;;;;;;;;;;;;;18.91;62.53;100064.72;7402388;19;1689;-47
2023/03/31 15:42:23;;;;;;;;;;;;;;;18.78;62.70;100080.28;7398828;19;1054;-47
2023/03/31 15:47:39;;;;;;;;;;;;;;;19.44;61.14;100085.31;7396035;19;1082;-46
2023/03/31 15:56:05;;;;;;;;;;;;;;;18.84;62.22;100072.53;7398092;19;734;-46
2023/03/31 15:58:50;;;;;;;;;;;;;;;18.71;62.18;100079.22;7397958;19;967;-46
2023/03/31 16:01:31;;;;;;;;;;;;;;;18.65;61.52;100078.81;7396089;19;1854;-46
2023/03/31 16:04:00;;;;;;;;;;;;;;;18.46;61.22;100085.13;7398212;19;1269;-46
2023/03/31 16:06:46;;;;;;;;;;;;;;;18.37;61.97;100091.34;7397167;19;1058;-46
2023/03/31 16:09:37;;;;;;;;;;;;;;;18.41;61.89;100082.03;7397956;19;966;-46
2023/03/31 16:12:16;;;;;;;;;;;;;;;18.51;62.15;100086.50;7401706;19;1089;-46
2023/03/31 16:14:53;;;;;;;;;;;;;;;18.44;62.18;100091.59;7405534;19;1074;-46
2023/03/31 16:17:43;;;;;;;;;;;;;;;18.34;62.77;100099.66;7404583;19;1054;-46
2023/03/31 16:20:19;;;;;;;;;;;;;;;18.28;63.46;100098.44;7404104;19;1843;-46
2023/03/31 16:23:11;;;;;;;;;;;;;;;18.13;63.33;100091.88;7405181;19;963;-46
2023/03/31 16:25:43;;;;;;;;;;;;;;;18.01;63.34;100101.91;7404249;19;1044;-46
2023/03/31 16:28:18;;;;;;;;;;;;;;;17.93;63.42;100088.41;7405240;19;1947;-46
2023/03/31 16:30:53;;;;;;;;;;;;;;;18.01;63.05;100090.38;7405543;19;990;-46
2023/03/31 16:33:24;;;;;;;;;;;;;;;17.67;53.95;100101.53;7405000;19;1019;-46
2023/03/31 16:35:59;;;;;;;;;;;;;;;17.45;52.86;100090.16;7404036;19;1067;-46
2023/03/31 16:38:31;;;;;;;;;;;;;;;17.32;53.42;100099.44;7403902;19;1169;-46
2023/03/31 16:41:07;;;;;;;;;;;;;;;17.23;54.21;100085.09;7402611;19;1845;-46
2023/03/31 16:43:39;;;;;;;;;;;;;;;17.19;54.56;100102.38;7406766;19;1360;-46
2023/03/31 16:46:08;;;;;;;;;;;;;;;17.15;54.44;100128.56;7404232;19;1031;-46
2023/03/31 16:48:37;;;;;;;;;;;;;;;17.11;53.77;100103.09;7403643;19;1070;-46
2023/03/31 16:51:15;;;;;;;;;;;;;;;16.95;56.01;100119.66;7404934;19;1598;-46
2023/03/31 16:53:50;;;;;;;;;;;;;;;16.94;54.34;100106.44;7403433;19;1008;-46
2023/03/31 16:56:29;;;;;;;;;;;;;;;16.88;54.05;100107.84;7405283;19;1933;-46
2023/03/31 16:59:02;;;;;;;;;;;;;;;16.88;54.68;100110.50;7404449;19;1602;-46
2023/03/31 17:01:35;;;;;;;;;;;;;;;16.75;54.20;100118.75;7401730;19;1846;-46
2023/03/31 17:04:19;;;;;;;;;;;;;;;17.06;57.81;100122.19;7402996;19;1109;-46
2023/03/31 17:07:07;;;;;;;;;;;;;;;17.35;58.09;100110.72;7402918;19;1059;-46
2023/03/31 17:09:35;;;;;;;;;;;;;;;17.66;59.87;100106.00;7402868;19;1066;-47
2023/03/31 17:12:03;;;;;;;;;;;;;;;17.92;59.75;100117.97;7402123;19;1315;-46
2023/03/31 17:14:34;;;;;;;;;;;;;;;17.83;60.25;100109.84;7403532;19;1025;-46
2023/03/31 17:17:27;;;;;;;;;;;;;;;18.05;60.21;100121.19;7404888;19;1747;-46
2023/03/31 17:19:58;;;;;;;;;;;;;;;18.16;59.67;100114.81;7402627;19;1028;-46
2023/03/31 17:22:27;;;;;;;;;;;;;;;18.24;59.76;100118.47;7397872;19;1865;-46
2023/03/31 17:25:10;;;;;;;;;;;;;;;18.22;59.75;100117.78;7402427;19;1027;-46
2023/03/31 17:27:40;;;;;;;;;;;;;;;18.20;60.36;100117.03;7402302;19;1055;-46
2023/03/31 17:30:13;;;;;;;;;;;;;;;18.20;60.32;100122.41;7402420;19;927;-46
2023/03/31 17:32:47;;;;;;;;;;;;;;;18.25;60.60;100120.13;7402118;19;1047;-46
2023/03/31 17:35:26;;;;;;;;;;;;;;;18.14;60.81;100143.56;7402725;19;1026;-46
2023/03/31 17:38:03;;;;;;;;;;;;;;;18.11;61.21;100123.28;7401922;19;1048;-46
2023/03/31 17:40:53;;;;;;;;;;;;;;;18.05;61.91;100126.56;7402566;19;1882;-46
2023/03/31 17:43:23;;;;;;;;;;;;;;;18.11;61.11;100117.94;7402684;19;1035;-46